Time;durP1;ratioP1;P1;durP2;ratioP2;P2;SDS_P1;SDS_P2;PMS_P1;PMS_P2;Temp;Humidity;BMP_temperature;BMP_pressure;BME280_temperature;BME280_humidity;BME280_pressure;Samples;Min_cycle;Max_cycle;Signal;HPM_P1;HPM_P2
2022/03/10 00:02:14;;;;;;;13.70;6.87;;;;;;;3.39;68.49;102864.31;4989155;28;20192;-74
2022/03/10 00:04:39;;;;;;;10.93;7.40;;;;;;;3.35;68.74;102853.84;4969779;28;20270;-74
2022/03/10 00:07:05;;;;;;;13.00;7.73;;;;;;;3.33;68.99;102857.88;4969636;28;20732;-74
2022/03/10 00:09:32;;;;;;;11.77;7.57;;;;;;;3.35;68.55;102863.97;4987553;28;20199;-74
2022/03/10 00:11:58;;;;;;;11.23;7.80;;;;;;;3.29;69.18;102849.16;4990367;28;20199;-73
2022/03/10 00:14:23;;;;;;;12.30;7.27;;;;;;;3.39;69.50;102853.28;4988838;28;20643;-74
2022/03/10 00:16:49;;;;;;;11.17;7.30;;;;;;;3.42;69.29;102858.59;4990155;28;20223;-73
2022/03/10 00:19:16;;;;;;;11.60;7.53;;;;;;;3.31;68.76;102867.88;4989197;28;20219;-74
2022/03/10 00:21:41;;;;;;;11.03;7.40;;;;;;;3.24;69.23;102868.16;4990236;28;20242;-74
2022/03/10 00:24:06;;;;;;;11.73;7.47;;;;;;;3.45;68.20;102866.47;4990339;28;20211;-74
2022/03/10 00:26:32;;;;;;;11.90;7.83;;;;;;;3.49;68.71;102869.34;4988652;28;20195;-73
2022/03/10 00:28:57;;;;;;;10.93;7.63;;;;;;;3.43;68.67;102863.81;4990121;28;20207;-73
2022/03/10 00:31:23;;;;;;;9.90;7.47;;;;;;;3.47;68.72;102870.88;4972699;28;20527;-74
2022/03/10 00:33:49;;;;;;;12.23;8.40;;;;;;;3.48;68.56;102867.56;4990040;28;20200;-74
2022/03/10 00:36:15;;;;;;;10.93;7.57;;;;;;;3.47;67.75;102867.44;4989646;28;20206;-74
2022/03/10 00:38:41;;;;;;;10.20;7.80;;;;;;;3.44;68.91;102867.19;4990016;28;20681;-73
2022/03/10 00:41:07;;;;;;;12.77;8.03;;;;;;;3.49;69.14;102876.94;4979453;28;20250;-73
2022/03/10 00:43:32;;;;;;;13.43;8.07;;;;;;;3.44;68.32;102884.91;4969407;28;20216;-73
2022/03/10 00:45:58;;;;;;;15.10;7.87;;;;;;;3.40;68.80;102882.94;4970435;28;20235;-73
2022/03/10 00:48:23;;;;;;;10.87;7.77;;;;;;;3.44;68.28;102895.03;4970586;28;20191;-73
2022/03/10 00:50:48;;;;;;;10.80;7.63;;;;;;;3.45;68.45;102889.25;4973662;28;20558;-73
2022/03/10 00:53:14;;;;;;;11.70;7.40;;;;;;;3.44;68.84;102890.88;4977873;28;20291;-73
2022/03/10 00:55:39;;;;;;;11.53;7.70;;;;;;;3.44;68.41;102901.00;4952910;28;20336;-73
2022/03/10 00:58:04;;;;;;;10.60;7.50;;;;;;;3.38;69.30;102902.16;4973894;28;20214;-73
2022/03/10 01:00:30;;;;;;;11.80;7.70;;;;;;;3.37;68.68;102900.38;4983794;28;20196;-74
2022/03/10 01:02:57;;;;;;;12.40;8.10;;;;;;;3.34;68.21;102900.13;4970480;28;20232;-74
2022/03/10 01:05:22;;;;;;;11.53;7.73;;;;;;;3.18;69.11;102894.59;4974924;28;20188;-74
2022/03/10 01:07:48;;;;;;;10.97;7.50;;;;;;;3.22;68.98;102892.44;4968011;28;20206;-73
2022/03/10 01:10:15;;;;;;;11.43;7.93;;;;;;;3.15;68.91;102890.19;4990090;28;20246;-73
2022/03/10 01:12:42;;;;;;;13.73;8.63;;;;;;;3.06;70.46;102894.50;4988255;28;20196;-73
2022/03/10 01:15:28;;;;;;;11.23;8.17;;;;;;;3.02;69.63;102895.00;4969372;28;20679;-74
2022/03/10 01:17:53;;;;;;;10.70;7.57;;;;;;;2.99;70.37;102883.75;4986345;28;20586;-73
2022/03/10 01:20:23;;;;;;;12.23;8.57;;;;;;;3.05;69.96;102884.25;4988335;28;20192;-73
2022/03/10 01:22:49;;;;;;;10.60;7.90;;;;;;;3.00;70.63;102881.34;4989697;28;20218;-74
2022/03/10 01:25:14;;;;;;;14.10;8.53;;;;;;;3.02;69.48;102878.91;4990041;28;20219;-73
2022/03/10 01:27:40;;;;;;;11.60;8.20;;;;;;;3.03;70.54;102880.72;4988216;28;20615;-73
2022/03/10 01:30:07;;;;;;;12.53;8.17;;;;;;;3.02;70.57;102883.97;4989973;28;20204;-73
2022/03/10 01:32:34;;;;;;;12.57;8.40;;;;;;;3.02;70.03;102882.34;4989796;28;20187;-74
2022/03/10 01:34:59;;;;;;;12.20;7.97;;;;;;;3.00;70.22;102880.44;4989779;28;20188;-74
2022/03/10 01:37:25;;;;;;;13.37;8.67;;;;;;;3.02;70.26;102874.75;4988270;28;20255;-74
2022/03/10 01:39:50;;;;;;;12.73;8.80;;;;;;;3.06;69.50;102866.66;4973820;28;20201;-74
2022/03/10 01:42:16;;;;;;;11.07;7.77;;;;;;;3.03;69.81;102870.59;4972531;28;20196;-74
2022/03/10 01:44:41;;;;;;;12.87;8.60;;;;;;;3.08;69.45;102874.38;4972314;28;20212;-74
2022/03/10 01:47:07;;;;;;;12.70;8.80;;;;;;;3.05;69.48;102880.06;4992060;28;20193;-74
2022/03/10 01:49:33;;;;;;;11.93;8.23;;;;;;;3.00;69.13;102872.84;4992316;28;20195;-73
2022/03/10 01:51:59;;;;;;;15.03;8.53;;;;;;;3.02;69.80;102874.75;4988942;28;20235;-74
2022/03/10 01:54:25;;;;;;;14.13;8.33;;;;;;;2.99;70.33;102873.63;4990022;28;20243;-73
2022/03/10 01:56:50;;;;;;;15.40;8.73;;;;;;;2.96;70.70;102871.72;4979202;28;20215;-74
2022/03/10 01:59:18;;;;;;;15.00;8.70;;;;;;;2.96;70.20;102871.72;4992724;28;20199;-74
2022/03/10 02:01:43;;;;;;;14.17;8.60;;;;;;;2.93;70.57;102866.41;4988193;28;20202;-73
2022/03/10 02:04:08;;;;;;;13.73;9.20;;;;;;;2.90;70.22;102876.25;4992556;28;20306;-74
2022/03/10 02:06:35;;;;;;;15.60;9.07;;;;;;;2.81;69.95;102872.13;4992356;28;20214;-74
2022/03/10 02:11:44;;;;;;;13.50;8.57;;;;;;;2.80;70.62;102875.41;4991234;28;20187;-74
2022/03/10 02:19:37;;;;;;;14.83;8.50;;;;;;;2.66;71.18;102884.34;4984095;28;20189;-74
2022/03/10 02:22:10;;;;;;;13.90;8.77;;;;;;;2.65;70.22;102881.69;4973066;28;20193;-74
2022/03/10 02:24:37;;;;;;;13.90;9.30;;;;;;;2.47;70.77;102883.59;4989955;28;20303;-73
2022/03/10 02:27:22;;;;;;;12.30;8.57;;;;;;;2.34;72.12;102874.84;4984391;28;20203;-74
2022/03/10 02:29:53;;;;;;;11.90;8.33;;;;;;;2.26;71.52;102884.28;4973119;28;20197;-74
2022/03/10 02:32:19;;;;;;;13.03;8.60;;;;;;;2.09;71.80;102881.09;4991013;28;20714;-73
2022/03/10 02:34:45;;;;;;;14.23;9.17;;;;;;;2.21;72.44;102889.72;4991695;28;20704;-73
2022/03/10 02:37:11;;;;;;;12.77;8.63;;;;;;;2.20;72.60;102891.34;5003351;28;20216;-73
2022/03/10 02:39:38;;;;;;;14.07;9.47;;;;;;;2.17;71.57;102892.75;4972341;28;20188;-73
2022/03/10 02:42:04;;;;;;;11.73;8.60;;;;;;;2.05;72.35;102889.16;4972472;28;20663;-73
2022/03/10 02:44:30;;;;;;;12.67;9.30;;;;;;;1.94;71.95;102890.78;4983416;28;20217;-73
2022/03/10 02:46:55;;;;;;;12.40;9.53;;;;;;;1.75;72.56;102889.06;4987072;28;20443;-73
2022/03/10 02:49:21;;;;;;;16.30;9.10;;;;;;;1.79;72.47;102894.47;4972254;28;20193;-74
2022/03/10 02:51:46;;;;;;;13.33;8.73;;;;;;;1.65;73.57;102894.91;4986526;28;20188;-73
2022/03/10 02:54:11;;;;;;;13.60;9.53;;;;;;;1.63;73.13;102887.97;4982276;28;20707;-74
2022/03/10 02:56:37;;;;;;;14.97;8.97;;;;;;;1.52;73.36;102892.06;4989597;28;20207;-73
2022/03/10 02:59:03;;;;;;;16.77;9.23;;;;;;;1.46;74.01;102896.59;4988995;28;20196;-73
2022/03/10 03:01:28;;;;;;;13.73;8.63;;;;;;;1.43;73.23;102895.44;4985723;28;20203;-73
2022/03/10 03:03:54;;;;;;;13.43;9.40;;;;;;;1.36;73.94;102895.63;4990149;28;20261;-73
2022/03/10 03:06:19;;;;;;;17.13;9.47;;;;;;;1.31;73.12;102904.44;4980225;28;20591;-73
2022/03/10 03:08:45;;;;;;;15.47;9.00;;;;;;;1.25;73.97;102902.28;4971943;28;20308;-74
2022/03/10 03:11:11;;;;;;;13.53;9.10;;;;;;;1.19;73.11;102909.28;4970807;28;20192;-73
2022/03/10 03:13:36;;;;;;;14.03;8.70;;;;;;;1.11;73.86;102902.69;4970536;28;20213;-73
2022/03/10 03:16:01;;;;;;;11.57;8.37;;;;;;;1.01;74.43;102904.25;4986303;28;20635;-73
2022/03/10 03:18:27;;;;;;;12.67;8.80;;;;;;;0.97;74.47;102908.13;4988708;28;20215;-73
2022/03/10 03:20:52;;;;;;;16.63;9.37;;;;;;;0.90;74.63;102913.34;4973205;28;20860;-73
2022/03/10 03:23:17;;;;;;;13.53;8.47;;;;;;;0.86;74.63;102912.94;4960253;28;20692;-74
2022/03/10 03:25:43;;;;;;;15.23;9.40;;;;;;;0.81;75.72;102904.94;4981904;28;20673;-73
2022/03/10 03:28:08;;;;;;;14.53;8.77;;;;;;;0.81;74.93;102910.00;4971569;28;20627;-73
2022/03/10 03:30:34;;;;;;;15.67;9.30;;;;;;;0.87;75.70;102915.56;4970563;28;20353;-73
2022/03/10 03:32:59;;;;;;;14.67;9.60;;;;;;;0.85;76.30;102914.56;4971718;28;20231;-74
2022/03/10 03:35:25;;;;;;;13.97;8.97;;;;;;;0.94;76.05;102914.50;4971329;28;20212;-73
2022/03/10 03:37:50;;;;;;;14.40;8.97;;;;;;;1.08;75.88;102919.16;4969968;28;20720;-74
2022/03/10 03:40:15;;;;;;;14.60;9.67;;;;;;;1.01;75.27;102921.88;4970164;28;20211;-74
2022/03/10 03:42:41;;;;;;;13.67;9.47;;;;;;;1.05;75.83;102926.47;4985279;28;20288;-74
2022/03/10 03:45:07;;;;;;;14.90;9.73;;;;;;;0.99;75.91;102926.78;4990844;28;20217;-73
2022/03/10 03:47:32;;;;;;;16.83;10.30;;;;;;;1.08;75.59;102934.28;4990409;28;20183;-74
2022/03/10 03:49:58;;;;;;;15.53;9.97;;;;;;;1.07;76.45;102938.47;4988716;28;20225;-74
2022/03/10 03:52:23;;;;;;;15.20;9.53;;;;;;;1.02;76.16;102938.78;4990826;28;20266;-74
2022/03/10 03:54:48;;;;;;;15.27;9.97;;;;;;;0.97;75.56;102938.38;4981730;28;20273;-73
2022/03/10 03:57:14;;;;;;;16.07;9.90;;;;;;;0.90;75.86;102945.22;4974100;28;20211;-74
2022/03/10 03:59:39;;;;;;;15.43;10.27;;;;;;;0.88;75.66;102950.16;4986108;28;20783;-74
2022/03/10 04:02:05;;;;;;;16.50;9.80;;;;;;;0.85;75.63;102956.53;4971022;28;20188;-74
2022/03/10 04:04:31;;;;;;;17.77;9.93;;;;;;;0.74;75.88;102952.13;4970898;28;20204;-73
2022/03/10 04:06:56;;;;;;;17.67;10.50;;;;;;;0.70;75.46;102952.59;4983684;28;20502;-73
2022/03/10 04:09:22;;;;;;;14.63;9.73;;;;;;;0.64;75.75;102957.09;4971425;28;20195;-74
2022/03/10 04:11:48;;;;;;;14.87;9.47;;;;;;;0.59;76.11;102949.09;4971170;28;20698;-73
2022/03/10 04:14:14;;;;;;;14.87;9.53;;;;;;;0.58;75.38;102952.34;4969917;28;20831;-73
2022/03/10 04:16:40;;;;;;;15.53;9.63;;;;;;;0.41;76.36;102944.88;4985147;28;20478;-73
2022/03/10 04:19:05;;;;;;;15.80;9.93;;;;;;;0.47;75.69;102953.00;4990529;28;20183;-74
2022/03/10 04:21:32;;;;;;;16.67;10.60;;;;;;;0.45;76.10;102948.56;4988940;28;20274;-73
2022/03/10 04:23:57;;;;;;;14.57;10.07;;;;;;;0.25;76.93;102946.72;4988852;28;20238;-74
2022/03/10 04:26:23;;;;;;;15.90;10.70;;;;;;;0.33;76.69;102935.72;4969187;28;20529;-73
2022/03/10 04:28:48;;;;;;;16.30;10.30;;;;;;;0.34;76.84;102953.47;4977563;28;20234;-73
2022/03/10 04:31:13;;;;;;;18.67;11.53;;;;;;;0.30;76.82;102950.53;4978682;28;20567;-73
2022/03/10 04:33:39;;;;;;;20.23;11.97;;;;;;;0.31;77.75;102964.91;4969391;28;20552;-73
2022/03/10 04:36:04;;;;;;;16.97;10.47;;;;;;;0.24;77.14;102968.47;4970276;28;20193;-73
2022/03/10 04:38:30;;;;;;;19.03;11.00;;;;;;;0.22;77.42;102962.41;4969410;28;20303;-73
2022/03/10 04:40:55;;;;;;;19.33;10.93;;;;;;;0.19;77.23;102963.78;4978800;28;20253;-73
2022/03/10 04:43:20;;;;;;;18.87;11.57;;;;;;;0.20;77.20;102966.41;4990067;28;20624;-73
2022/03/10 04:45:46;;;;;;;18.53;11.53;;;;;;;0.19;77.81;102966.28;4983554;28;20678;-73
2022/03/10 04:48:11;;;;;;;19.37;11.70;;;;;;;0.10;78.23;102970.47;4969439;28;20199;-73
2022/03/10 04:50:37;;;;;;;17.07;11.10;;;;;;;0.13;78.02;102972.38;4970671;28;20180;-73
2022/03/10 04:53:02;;;;;;;18.50;12.00;;;;;;;0.12;78.30;102974.00;4970565;28;20654;-73
2022/03/10 04:55:28;;;;;;;19.43;12.13;;;;;;;0.11;77.72;102974.75;4970430;28;20271;-72
2022/03/10 04:57:53;;;;;;;18.63;11.67;;;;;;;0.10;77.52;102988.94;4970412;28;20236;-73
2022/03/10 05:00:19;;;;;;;17.77;12.07;;;;;;;0.05;77.87;102974.19;4978575;28;20821;-73
2022/03/10 05:02:47;;;;;;;18.17;11.23;;;;;;;-0.03;77.89;102980.09;4989934;28;20250;-73
2022/03/10 05:05:14;;;;;;;20.03;11.97;;;;;;;-0.11;78.03;102981.00;4989261;28;20190;-73
2022/03/10 05:07:40;;;;;;;20.37;11.00;;;;;;;-0.12;78.02;102985.16;4981574;28;20448;-73
2022/03/10 05:10:06;;;;;;;21.10;13.23;;;;;;;-0.16;78.44;102972.13;4976360;28;20489;-72
2022/03/10 05:12:32;;;;;;;17.67;11.40;;;;;;;-0.10;78.39;102983.66;4991277;28;20434;-74
2022/03/10 05:14:57;;;;;;;20.90;12.10;;;;;;;-0.11;78.65;102975.97;4983347;28;20465;-73
2022/03/10 05:17:23;;;;;;;20.90;12.17;;;;;;;-0.11;78.78;102991.06;4993049;28;20650;-73
2022/03/10 05:19:51;;;;;;;21.37;12.30;;;;;;;-0.11;78.47;102991.06;4974092;28;20852;-74
2022/03/10 05:22:16;;;;;;;17.83;11.77;;;;;;;-0.18;78.53;102989.56;4974001;28;20189;-73
2022/03/10 05:24:42;;;;;;;19.70;11.53;;;;;;;-0.15;78.24;102988.97;4973885;28;20448;-73
2022/03/10 05:27:07;;;;;;;18.13;11.77;;;;;;;-0.23;77.86;102998.31;4972258;28;20716;-73
2022/03/10 05:29:32;;;;;;;18.47;11.90;;;;;;;-0.24;78.07;102990.63;4973780;28;20212;-73
2022/03/10 05:31:57;;;;;;;20.97;12.17;;;;;;;-0.24;78.28;103000.69;4972646;28;20216;-73
2022/03/10 05:34:23;;;;;;;19.23;12.53;;;;;;;-0.27;78.32;103001.28;4972581;28;20216;-73
2022/03/10 05:36:48;;;;;;;19.50;11.47;;;;;;;-0.27;78.40;103000.41;4973173;28;20239;-73
2022/03/10 05:39:14;;;;;;;17.80;11.20;;;;;;;-0.42;79.00;102999.81;4973867;28;20197;-73
2022/03/10 05:41:40;;;;;;;19.67;12.10;;;;;;;-0.41;79.12;103004.09;4972727;28;20251;-73
2022/03/10 05:44:05;;;;;;;21.00;12.23;;;;;;;-0.41;79.08;103006.59;4973645;28;20467;-73
2022/03/10 05:46:31;;;;;;;19.83;11.97;;;;;;;-0.43;79.80;103004.69;4972056;28;20335;-73
2022/03/10 05:48:56;;;;;;;18.50;12.20;;;;;;;-0.38;79.71;103004.41;4977083;28;20195;-73
2022/03/10 05:51:22;;;;;;;20.13;12.67;;;;;;;-0.36;79.60;102995.34;4973553;28;20183;-73
2022/03/10 05:53:50;;;;;;;20.50;12.90;;;;;;;-0.33;80.63;102989.72;4972190;28;20263;-73
2022/03/10 05:56:16;;;;;;;20.53;12.53;;;;;;;-0.32;80.64;102987.38;4973344;28;20650;-73
2022/03/10 05:58:42;;;;;;;20.97;12.93;;;;;;;-0.17;80.63;102985.44;4973648;28;20434;-73
2022/03/10 06:01:07;;;;;;;19.30;11.53;;;;;;;-0.19;80.75;102987.81;4985198;28;20523;-73
2022/03/10 06:03:33;;;;;;;20.43;12.53;;;;;;;-0.15;80.30;102983.94;4987035;28;20224;-73
2022/03/10 06:05:58;;;;;;;21.20;12.93;;;;;;;-0.14;80.37;102990.75;4973378;28;20193;-73
2022/03/10 06:08:25;;;;;;;22.13;13.07;;;;;;;-0.18;80.09;102992.09;4973063;28;20279;-73
2022/03/10 06:10:50;;;;;;;23.23;13.50;;;;;;;-0.16;80.29;102995.66;4973209;28;20263;-73
2022/03/10 06:13:15;;;;;;;20.03;12.97;;;;;;;-0.17;80.23;102996.38;4971879;28;20965;-73
2022/03/10 06:15:41;;;;;;;20.40;13.37;;;;;;;-0.13;80.06;102992.56;4972988;28;20180;-73
2022/03/10 06:18:08;;;;;;;21.43;12.40;;;;;;;-0.17;79.64;102987.97;4972969;28;20181;-73
2022/03/10 06:20:34;;;;;;;19.97;12.90;;;;;;;-0.13;79.75;103000.09;4972546;28;20211;-73
2022/03/10 06:22:59;;;;;;;19.67;12.83;;;;;;;-0.12;79.73;103005.28;4986622;28;20454;-73
2022/03/10 06:25:25;;;;;;;21.63;13.30;;;;;;;-0.09;79.53;103005.56;4992290;28;20473;-73
2022/03/10 06:27:50;;;;;;;20.00;12.43;;;;;;;-0.08;79.26;103016.53;4991928;28;20227;-73
2022/03/10 06:30:15;;;;;;;19.03;11.90;;;;;;;-0.08;79.25;103003.94;4992131;28;20676;-73
2022/03/10 06:32:41;;;;;;;21.33;12.87;;;;;;;-0.13;79.49;103011.03;4990833;28;20800;-73
2022/03/10 06:35:07;;;;;;;24.63;14.10;;;;;;;0.00;79.63;103013.13;4991723;28;20595;-73
2022/03/10 06:37:33;;;;;;;23.00;13.10;;;;;;;0.09;79.49;103022.44;4991967;28;20195;-73
2022/03/10 06:39:59;;;;;;;21.30;13.67;;;;;;;0.21;78.95;103020.19;4992090;28;20439;-73
2022/03/10 06:42:24;;;;;;;21.57;13.60;;;;;;;0.37;79.04;103027.56;4990793;28;20664;-73
2022/03/10 06:44:50;;;;;;;20.47;13.40;;;;;;;0.54;78.71;103028.41;4991850;28;20239;-73
2022/03/10 06:47:15;;;;;;;19.87;13.57;;;;;;;0.70;79.19;103028.22;4991667;28;20219;-73
2022/03/10 06:49:41;;;;;;;24.10;14.67;;;;;;;0.89;79.06;103034.22;4990551;28;20257;-73
2022/03/10 06:52:10;;;;;;;21.87;14.33;;;;;;;1.00;78.26;103042.03;4991944;28;20684;-74
2022/03/10 06:54:37;;;;;;;23.40;14.70;;;;;;;1.09;77.89;103047.91;4990463;28;20215;-72
2022/03/10 06:57:03;;;;;;;26.80;16.13;;;;;;;1.28;78.16;103043.81;4991674;28;20478;-73
2022/03/10 06:59:28;;;;;;;23.47;15.43;;;;;;;1.43;77.70;103045.22;4989949;28;20494;-73
2022/03/10 07:01:53;;;;;;;26.83;15.43;;;;;;;1.74;76.52;103041.28;4983536;28;20184;-73
2022/03/10 07:04:19;;;;;;;22.13;14.43;;;;;;;1.89;75.87;103051.09;4991623;28;20212;-73
2022/03/10 07:06:44;;;;;;;21.83;14.80;;;;;;;2.22;74.73;103043.09;4991372;28;20301;-73
2022/03/10 07:09:10;;;;;;;25.10;16.37;;;;;;;2.41;74.53;103049.91;4991753;28;20222;-73
2022/03/10 07:11:35;;;;;;;24.33;15.37;;;;;;;2.60;73.56;103047.28;4991830;28;20277;-73
2022/03/10 07:14:00;;;;;;;23.83;14.17;;;;;;;2.91;72.75;103046.66;4986890;28;20307;-73
2022/03/10 07:16:25;;;;;;;21.70;14.73;;;;;;;3.03;71.77;103040.09;4971829;28;20197;-74
2022/03/10 07:18:51;;;;;;;23.80;13.73;;;;;;;3.23;70.88;103035.97;4971925;28;20200;-73
2022/03/10 07:21:20;;;;;;;23.67;14.87;;;;;;;3.43;70.17;103043.56;4971887;28;20184;-73
2022/03/10 07:23:46;;;;;;;24.57;14.47;;;;;;;3.68;69.54;103029.59;4975198;28;20216;-73
2022/03/10 07:26:12;;;;;;;27.53;13.83;;;;;;;3.92;67.97;103041.72;4970279;28;20204;-73
2022/03/10 07:28:38;;;;;;;24.43;13.97;;;;;;;3.96;68.18;103042.88;4971268;28;20228;-74
2022/03/10 07:31:04;;;;;;;25.27;13.93;;;;;;;4.03;67.06;103042.59;4984434;28;20226;-74
2022/03/10 07:33:30;;;;;;;21.70;13.43;;;;;;;4.45;66.63;103039.28;4989287;28;20207;-74
2022/03/10 07:35:55;;;;;;;20.73;13.73;;;;;;;4.60;65.46;103043.03;4990642;28;20199;-74
2022/03/10 07:38:20;;;;;;;22.03;13.50;;;;;;;4.81;65.31;103043.81;4989403;28;20195;-75
2022/03/10 07:40:46;;;;;;;20.40;13.97;;;;;;;5.18;64.06;103038.25;4973451;28;20249;-75
2022/03/10 07:43:11;;;;;;;18.77;13.07;;;;;;;5.36;63.74;103040.53;4989436;28;20212;-74
2022/03/10 07:45:36;;;;;;;21.43;13.00;;;;;;;5.49;63.29;103044.88;4990493;28;20575;-75
2022/03/10 07:48:02;;;;;;;20.77;13.47;;;;;;;5.60;61.66;103041.47;4971644;28;20219;-74
2022/03/10 07:50:27;;;;;;;20.53;13.30;;;;;;;5.76;60.21;103042.72;4971252;28;20257;-74
2022/03/10 07:52:53;;;;;;;20.50;13.20;;;;;;;5.71;60.70;103044.03;4971296;28;20211;-74
2022/03/10 07:55:18;;;;;;;19.77;12.50;;;;;;;6.19;59.66;103034.94;4969874;28;20238;-75
2022/03/10 07:57:44;;;;;;;19.67;13.17;;;;;;;6.44;59.00;103027.41;4970842;28;20192;-74
2022/03/10 08:00:10;;;;;;;19.70;12.03;;;;;;;7.19;62.22;103031.03;4978278;28;20188;-74
2022/03/10 08:02:36;;;;;;;20.37;13.10;;;;;;;7.12;58.36;103026.31;4990498;28;20191;-75
2022/03/10 08:05:02;;;;;;;18.20;12.90;;;;;;;7.51;59.48;103020.47;4990500;28;20199;-76
2022/03/10 08:07:32;;;;;;;19.77;13.03;;;;;;;7.14;56.49;103023.88;4989031;28;20491;-74
2022/03/10 08:10:05;;;;;;;16.80;12.07;;;;;;;7.74;56.16;103027.97;4990549;28;20195;-75
2022/03/10 08:12:32;;;;;;;17.13;12.63;;;;;;;7.64;54.96;103015.41;4985790;28;20194;-72
2022/03/10 08:14:58;;;;;;;17.23;12.30;;;;;;;7.69;55.36;103030.19;4969422;28;20788;-73
2022/03/10 08:17:25;;;;;;;19.57;12.57;;;;;;;8.01;54.33;103022.97;4984817;28;20595;-76
2022/03/10 08:19:50;;;;;;;19.67;12.60;;;;;;;7.95;54.42;103017.47;4970461;28;20191;-73
2022/03/10 08:22:16;;;;;;;19.57;12.40;;;;;;;8.11;52.33;103021.91;4982132;28;20191;-73
2022/03/10 08:24:42;;;;;;;18.83;12.07;;;;;;;8.39;52.22;103015.25;4969339;28;20220;-73
2022/03/10 08:27:08;;;;;;;18.60;12.03;;;;;;;8.62;51.68;103012.47;4970507;28;20220;-73
2022/03/10 08:29:33;;;;;;;18.83;12.80;;;;;;;8.91;50.98;103010.91;4983189;28;20227;-73
2022/03/10 08:31:59;;;;;;;18.43;12.20;;;;;;;8.65;51.48;103017.72;4961440;28;20326;-74
2022/03/10 08:34:24;;;;;;;17.47;11.97;;;;;;;9.07;50.74;103026.34;4953361;28;20579;-73
2022/03/10 08:36:49;;;;;;;16.33;12.23;;;;;;;9.47;50.29;103024.50;4970383;28;20559;-73
2022/03/10 08:39:15;;;;;;;16.60;12.13;;;;;;;9.02;49.50;103022.63;4970513;28;20646;-73
2022/03/10 08:41:41;;;;;;;18.10;12.47;;;;;;;9.35;48.85;103021.22;4970414;28;20258;-74
2022/03/10 08:44:06;;;;;;;18.50;11.97;;;;;;;9.41;49.91;103014.81;4972976;28;20984;-74
2022/03/10 08:46:32;;;;;;;15.57;12.30;;;;;;;9.54;48.26;103018.94;4973804;28;20207;-73
2022/03/10 08:48:57;;;;;;;16.27;12.60;;;;;;;9.28;49.82;103017.41;4973289;28;20220;-74
2022/03/10 08:51:23;;;;;;;18.67;12.73;;;;;;;9.99;49.08;103012.22;4973121;28;20224;-74
2022/03/10 08:53:48;;;;;;;18.27;12.90;;;;;;;9.41;49.07;103009.69;4974338;28;20286;-73
2022/03/10 08:56:13;;;;;;;17.80;11.70;;;;;;;10.12;48.33;103004.47;4974300;28;20183;-74
2022/03/10 08:58:39;;;;;;;18.10;12.83;;;;;;;9.92;47.93;102999.91;4974036;28;20189;-74
2022/03/10 09:01:04;;;;;;;21.40;13.07;;;;;;;10.05;47.49;103001.50;4982260;28;20735;-74
2022/03/10 09:03:30;;;;;;;18.10;13.23;;;;;;;10.16;47.46;103005.53;4993508;28;20207;-74
2022/03/10 09:05:55;;;;;;;18.63;13.20;;;;;;;10.08;47.63;102997.41;4993716;28;20184;-75
2022/03/10 09:08:20;;;;;;;17.60;12.70;;;;;;;9.87;47.81;102992.75;4981119;28;20335;-74
2022/03/10 09:10:46;;;;;;;17.80;12.23;;;;;;;10.26;48.07;102990.75;4989068;28;20275;-74
2022/03/10 09:13:11;;;;;;;16.60;13.13;;;;;;;10.80;45.55;102990.28;4984692;28;20231;-74
2022/03/10 09:15:36;;;;;;;15.73;12.20;;;;;;;11.52;45.50;102986.38;4973750;28;20687;-75
2022/03/10 09:18:02;;;;;;;18.23;12.50;;;;;;;11.42;45.02;102992.72;4973762;28;20757;-74
2022/03/10 09:20:28;;;;;;;15.93;12.23;;;;;;;11.56;44.99;102985.72;4974017;28;20188;-74
2022/03/10 09:22:53;;;;;;;17.53;13.53;;;;;;;11.58;44.55;102991.81;4979157;28;20654;-74
2022/03/10 09:25:19;;;;;;;16.50;12.70;;;;;;;12.29;44.13;102986.78;4989690;28;20179;-74
2022/03/10 09:27:44;;;;;;;17.20;13.53;;;;;;;12.70;43.05;102978.41;4973324;28;20232;-75
2022/03/10 09:30:11;;;;;;;16.53;13.57;;;;;;;13.91;40.16;102972.53;4973610;28;20712;-75
2022/03/10 09:32:41;;;;;;;15.77;13.33;;;;;;;18.05;32.41;102946.28;4973632;28;20189;-73
2022/03/10 09:35:09;;;;;;;14.93;13.33;;;;;;;19.78;29.44;102945.38;4956277;28;20674;-74
2022/03/10 09:37:34;;;;;;;15.00;12.97;;;;;;;22.89;26.49;102933.59;4973474;28;20225;-75
2022/03/10 09:40:00;;;;;;;15.45;13.77;;;;;;;22.98;26.14;102936.19;4972114;28;20200;-73
2022/03/10 09:42:29;;;;;;;15.70;13.93;;;;;;;23.64;23.95;102938.03;4976083;28;20264;-73
2022/03/10 09:45:00;;;;;;;14.70;13.20;;;;;;;22.95;25.03;102940.56;4993233;28;20211;-78
2022/03/10 09:47:26;;;;;;;16.35;14.05;;;;;;;23.10;25.26;102938.84;4992333;28;20211;-73
2022/03/10 09:49:53;;;;;;;16.40;13.85;;;;;;;24.78;23.37;102928.16;4992994;28;20195;-72
2022/03/10 09:52:19;;;;;;;15.57;13.98;;;;;;;25.82;22.27;102922.06;4993062;28;20191;-73
2022/03/10 09:54:44;;;;;;;14.95;13.43;;;;;;;25.91;21.96;102914.97;4992221;28;20215;-73
2022/03/10 09:57:10;;;;;;;15.27;13.68;;;;;;;24.78;22.10;102920.28;4992720;28;20316;-73
2022/03/10 09:59:48;;;;;;;14.98;13.27;;;;;;;26.02;21.82;102920.16;4989008;28;20191;-75
2022/03/10 10:02:13;;;;;;;15.80;14.23;;;;;;;26.56;20.97;102919.47;4981289;28;20222;-74
2022/03/10 10:04:41;;;;;;;15.85;14.23;;;;;;;26.45;21.20;102926.63;4961321;28;20244;-74
2022/03/10 10:07:08;;;;;;;15.05;13.60;;;;;;;25.14;22.18;102925.25;4972242;28;20244;-75
2022/03/10 10:09:47;;;;;;;14.98;13.57;;;;;;;25.68;21.68;102916.09;4973039;28;20185;-74
2022/03/10 10:12:14;;;;;;;14.38;12.95;;;;;;;27.67;20.14;102910.75;4973115;28;20187;-74
2022/03/10 10:14:42;;;;;;;14.93;12.80;;;;;;;27.54;19.63;102900.47;4972562;28;20629;-74
2022/03/10 10:17:08;;;;;;;14.85;12.18;;;;;;;27.93;19.05;102911.16;4972655;28;20669;-73
2022/03/10 10:19:34;;;;;;;14.82;12.23;;;;;;;29.03;18.53;102907.06;4985140;28;20192;-74
2022/03/10 10:22:09;;;;;;;14.35;12.93;;;;;;;29.02;18.32;102907.09;4972793;28;20193;-74
2022/03/10 10:24:35;;;;;;;13.13;11.82;;;;;;;28.14;18.20;102915.16;4972670;28;20243;-74
2022/03/10 10:27:15;;;;;;;12.95;11.65;;;;;;;28.65;18.24;102909.66;4972324;28;20215;-74
2022/03/10 10:29:48;;;;;;;14.75;12.52;;;;;;;26.85;20.17;102920.00;4960319;28;20199;-74
2022/03/10 10:32:24;;;;;;;13.77;12.48;;;;;;;28.62;18.43;102906.22;4971323;28;20200;-73
2022/03/10 10:35:08;;;;;;;13.45;12.05;;;;;;;28.68;18.40;102914.88;4972585;28;20710;-74
2022/03/10 10:37:36;;;;;;;14.55;12.38;;;;;;;29.39;17.63;102915.84;4970983;28;20724;-74
2022/03/10 10:40:03;;;;;;;13.10;11.80;;;;;;;27.35;18.71;102915.69;4972423;28;20331;-74
2022/03/10 10:42:30;;;;;;;13.23;11.93;;;;;;;28.60;18.88;102908.03;4971142;28;20200;-75
2022/03/10 10:44:58;;;;;;;12.40;11.18;;;;;;;29.67;17.40;102915.13;4972330;28;20731;-73
2022/03/10 10:47:26;;;;;;;13.45;12.15;;;;;;;27.90;18.86;102913.00;4971707;28;20177;-73
2022/03/10 10:50:04;;;;;;;14.45;12.40;;;;;;;29.77;17.34;102908.69;4972142;28;20191;-73
2022/03/10 10:52:37;;;;;;;13.77;12.48;;;;;;;28.86;18.26;102913.59;4970940;28;20235;-74
2022/03/10 10:55:11;;;;;;;13.82;12.38;;;;;;;28.45;18.16;102913.63;4972314;28;20188;-73
2022/03/10 10:57:37;;;;;;;14.23;12.60;;;;;;;28.85;18.22;102914.50;4972186;28;20525;-72
2022/03/10 11:00:13;;;;;;;12.48;11.32;;;;;;;28.54;18.01;102911.69;4978251;28;20267;-73
2022/03/10 11:02:44;;;;;;;13.82;12.43;;;;;;;26.71;19.96;102914.06;4983145;28;20283;-73
2022/03/10 11:05:14;;;;;;;13.52;12.13;;;;;;;28.72;18.64;102906.00;4986927;28;20177;-73
2022/03/10 11:07:41;;;;;;;13.73;12.23;;;;;;;28.39;18.83;102892.63;4981902;28;20234;-74
2022/03/10 11:10:11;;;;;;;13.90;12.43;;;;;;;28.46;17.71;102895.13;4991774;28;20669;-73
2022/03/10 11:12:40;;;;;;;12.95;11.65;;;;;;;28.51;17.80;102901.19;4991126;28;20192;-73
2022/03/10 11:15:07;;;;;;;13.25;11.85;;;;;;;29.71;16.98;102890.34;4978593;28;20760;-73
2022/03/10 11:17:33;;;;;;;13.13;11.82;;;;;;;27.95;19.12;102904.09;4980580;28;20217;-72
2022/03/10 11:20:01;;;;;;;14.52;12.20;;;;;;;28.67;17.84;102888.53;4971670;28;20196;-73
2022/03/10 11:23:02;;;;;;;13.38;12.02;;;;;;;30.59;16.15;102879.84;4971508;28;20190;-73